Wingate, United Kingdom
Current Conditions -  °F | °C
As of 9:50 PM on Monday 26 Jan 2015 (Local Time) from EGNV Reporting Station
Clear Clear  
Wind Chill: 32°   Ceiling: Unl
Heat Index: 39°   Visibility: 6mi
Dew Point: 32°   Wind: 13mph
Humidity: 75%   Direction: 270°W
Pressure: 30.24"   Gusts: NA
Location:  54.73°N, 1.38°W
Report Text: EGNV 262150Z 27011KT CAVOK 04/00 Q1024
Loading
Personal Weather Stations






























Interactive Weather Map New forecast layout! Learn more

10-Day Weather Forecast

Advertisements
Track Severe Weather on mobile